sensor_id;sensor_type;location;lat;lon;timestamp;P1;durP1;ratioP1;P2;durP2;ratioP2
41141;SDS011;63666;52.284;20.890;2022-10-13T00:02:27;5.60;;;3.50;;
41141;SDS011;63666;52.284;20.890;2022-10-13T00:04:59;5.80;;;3.40;;
41141;SDS011;63666;52.284;20.890;2022-10-13T00:07:32;6.00;;;3.60;;
41141;SDS011;63666;52.284;20.890;2022-10-13T00:10:08;4.80;;;3.00;;
41141;SDS011;63666;52.284;20.890;2022-10-13T00:12:41;5.50;;;3.50;;
41141;SDS011;63666;52.284;20.890;2022-10-13T00:15:14;5.10;;;3.40;;
41141;SDS011;63666;52.284;20.890;2022-10-13T00:17:47;5.40;;;3.60;;
41141;SDS011;63666;52.284;20.890;2022-10-13T00:20:20;5.10;;;3.30;;
41141;SDS011;63666;52.284;20.890;2022-10-13T00:22:52;5.00;;;3.20;;
41141;SDS011;63666;52.284;20.890;2022-10-13T00:25:24;5.90;;;3.70;;
41141;SDS011;63666;52.284;20.890;2022-10-13T00:27:59;5.30;;;3.50;;
41141;SDS011;63666;52.284;20.890;2022-10-13T00:30:35;6.30;;;3.90;;
41141;SDS011;63666;52.284;20.890;2022-10-13T00:33:10;5.00;;;3.20;;
41141;SDS011;63666;52.284;20.890;2022-10-13T00:35:43;4.50;;;3.10;;
41141;SDS011;63666;52.284;20.890;2022-10-13T00:38:18;5.40;;;3.20;;
41141;SDS011;63666;52.284;20.890;2022-10-13T00:40:52;5.50;;;3.50;;
41141;SDS011;63666;52.284;20.890;2022-10-13T00:43:29;5.20;;;3.40;;
41141;SDS011;63666;52.284;20.890;2022-10-13T00:46:20;6.30;;;3.40;;
41141;SDS011;63666;52.284;20.890;2022-10-13T00:48:54;5.40;;;3.60;;
41141;SDS011;63666;52.284;20.890;2022-10-13T00:51:31;5.20;;;3.50;;
41141;SDS011;63666;52.284;20.890;2022-10-13T00:54:07;5.20;;;3.20;;
41141;SDS011;63666;52.284;20.890;2022-10-13T00:56:41;5.40;;;3.60;;
41141;SDS011;63666;52.284;20.890;2022-10-13T00:59:15;6.00;;;3.70;;
41141;SDS011;63666;52.284;20.890;2022-10-13T01:01:52;5.30;;;3.50;;
41141;SDS011;63666;52.284;20.890;2022-10-13T01:07:01;5.50;;;3.30;;
41141;SDS011;63666;52.284;20.890;2022-10-13T01:09:35;5.90;;;3.60;;
41141;SDS011;63666;52.284;20.890;2022-10-13T01:12:19;6.50;;;3.60;;
41141;SDS011;63666;52.284;20.890;2022-10-13T01:15:02;5.30;;;3.70;;
41141;SDS011;63666;52.284;20.890;2022-10-13T01:17:49;5.30;;;3.70;;
41141;SDS011;63666;52.284;20.890;2022-10-13T01:20:54;5.70;;;3.50;;
41141;SDS011;63666;52.284;20.890;2022-10-13T01:27:06;5.60;;;3.70;;
41141;SDS011;63666;52.284;20.890;2022-10-13T01:29:53;5.50;;;3.60;;
41141;SDS011;63666;52.284;20.890;2022-10-13T01:33:15;6.20;;;3.90;;
41141;SDS011;63666;52.284;20.890;2022-10-13T01:36:02;5.40;;;3.60;;
41141;SDS011;63666;52.284;20.890;2022-10-13T01:38:47;5.80;;;3.70;;
41141;SDS011;63666;52.284;20.890;2022-10-13T01:41:31;5.50;;;3.90;;
41141;SDS011;63666;52.284;20.890;2022-10-13T01:44:13;6.00;;;4.00;;
41141;SDS011;63666;52.284;20.890;2022-10-13T01:46:49;5.50;;;3.70;;
41141;SDS011;63666;52.284;20.890;2022-10-13T01:49:32;5.80;;;3.90;;
41141;SDS011;63666;52.284;20.890;2022-10-13T01:52:12;5.80;;;4.00;;
41141;SDS011;63666;52.284;20.890;2022-10-13T01:54:49;5.50;;;4.00;;
41141;SDS011;63666;52.284;20.890;2022-10-13T01:57:33;6.10;;;4.40;;
41141;SDS011;63666;52.284;20.890;2022-10-13T02:00:10;6.70;;;4.00;;
41141;SDS011;63666;52.284;20.890;2022-10-13T02:02:56;6.40;;;4.00;;
41141;SDS011;63666;52.284;20.890;2022-10-13T02:05:41;5.80;;;4.10;;
41141;SDS011;63666;52.284;20.890;2022-10-13T02:08:23;5.60;;;3.90;;
41141;SDS011;63666;52.284;20.890;2022-10-13T02:11:04;5.90;;;4.00;;
41141;SDS011;63666;52.284;20.890;2022-10-13T02:13:44;5.60;;;3.90;;
41141;SDS011;63666;52.284;20.890;2022-10-13T02:16:19;6.60;;;3.90;;
41141;SDS011;63666;52.284;20.890;2022-10-13T02:21:23;6.00;;;4.30;;
41141;SDS011;63666;52.284;20.890;2022-10-13T02:23:59;6.00;;;4.20;;
41141;SDS011;63666;52.284;20.890;2022-10-13T02:26:33;6.00;;;4.20;;
41141;SDS011;63666;52.284;20.890;2022-10-13T02:29:10;6.00;;;4.20;;
41141;SDS011;63666;52.284;20.890;2022-10-13T02:31:45;6.10;;;4.00;;
41141;SDS011;63666;52.284;20.890;2022-10-13T02:34:18;5.70;;;4.10;;
41141;SDS011;63666;52.284;20.890;2022-10-13T02:36:50;5.80;;;3.90;;
41141;SDS011;63666;52.284;20.890;2022-10-13T02:39:25;6.20;;;4.60;;
41141;SDS011;63666;52.284;20.890;2022-10-13T02:41:58;5.80;;;4.30;;
41141;SDS011;63666;52.284;20.890;2022-10-13T02:44:30;6.90;;;4.40;;
41141;SDS011;63666;52.284;20.890;2022-10-13T02:47:02;6.90;;;4.60;;
41141;SDS011;63666;52.284;20.890;2022-10-13T02:49:35;6.60;;;4.70;;
41141;SDS011;63666;52.284;20.890;2022-10-13T02:52:07;6.10;;;4.30;;
41141;SDS011;63666;52.284;20.890;2022-10-13T02:54:39;6.30;;;4.60;;
41141;SDS011;63666;52.284;20.890;2022-10-13T02:57:12;6.50;;;5.00;;
41141;SDS011;63666;52.284;20.890;2022-10-13T02:59:44;7.40;;;4.70;;
41141;SDS011;63666;52.284;20.890;2022-10-13T03:02:17;6.40;;;4.70;;
41141;SDS011;63666;52.284;20.890;2022-10-13T03:04:50;6.40;;;4.40;;
41141;SDS011;63666;52.284;20.890;2022-10-13T03:07:22;6.50;;;4.80;;
41141;SDS011;63666;52.284;20.890;2022-10-13T03:09:54;6.20;;;4.40;;
41141;SDS011;63666;52.284;20.890;2022-10-13T03:12:26;6.10;;;4.80;;
41141;SDS011;63666;52.284;20.890;2022-10-13T03:14:59;6.30;;;4.70;;
41141;SDS011;63666;52.284;20.890;2022-10-13T03:17:32;6.40;;;4.40;;
41141;SDS011;63666;52.284;20.890;2022-10-13T03:20:08;6.50;;;4.10;;
41141;SDS011;63666;52.284;20.890;2022-10-13T03:22:41;6.70;;;4.50;;
41141;SDS011;63666;52.284;20.890;2022-10-13T03:25:13;6.30;;;4.50;;
41141;SDS011;63666;52.284;20.890;2022-10-13T03:27:46;6.80;;;4.80;;
41141;SDS011;63666;52.284;20.890;2022-10-13T03:30:18;6.40;;;4.70;;
41141;SDS011;63666;52.284;20.890;2022-10-13T03:32:50;6.80;;;5.10;;
41141;SDS011;63666;52.284;20.890;2022-10-13T03:35:22;6.50;;;4.60;;
41141;SDS011;63666;52.284;20.890;2022-10-13T03:40:29;5.90;;;4.70;;
41141;SDS011;63666;52.284;20.890;2022-10-13T03:43:02;7.20;;;4.80;;
41141;SDS011;63666;52.284;20.890;2022-10-13T03:45:34;6.10;;;4.70;;
41141;SDS011;63666;52.284;20.890;2022-10-13T03:48:10;5.90;;;4.40;;
41141;SDS011;63666;52.284;20.890;2022-10-13T03:50:42;6.40;;;4.90;;
41141;SDS011;63666;52.284;20.890;2022-10-13T03:53:14;6.90;;;4.70;;
41141;SDS011;63666;52.284;20.890;2022-10-13T03:55:51;7.10;;;4.80;;
41141;SDS011;63666;52.284;20.890;2022-10-13T03:58:25;6.70;;;4.60;;
41141;SDS011;63666;52.284;20.890;2022-10-13T04:01:02;6.90;;;4.80;;
41141;SDS011;63666;52.284;20.890;2022-10-13T04:03:35;5.50;;;4.40;;
41141;SDS011;63666;52.284;20.890;2022-10-13T04:06:08;5.90;;;4.40;;
41141;SDS011;63666;52.284;20.890;2022-10-13T04:11:13;5.90;;;4.50;;
41141;SDS011;63666;52.284;20.890;2022-10-13T04:13:46;6.50;;;4.40;;
41141;SDS011;63666;52.284;20.890;2022-10-13T04:16:20;6.70;;;4.70;;
41141;SDS011;63666;52.284;20.890;2022-10-13T04:18:55;6.20;;;4.50;;
41141;SDS011;63666;52.284;20.890;2022-10-13T04:21:30;7.00;;;4.70;;
41141;SDS011;63666;52.284;20.890;2022-10-13T04:24:05;6.70;;;4.80;;
41141;SDS011;63666;52.284;20.890;2022-10-13T04:26:40;7.70;;;4.40;;
41141;SDS011;63666;52.284;20.890;2022-10-13T04:29:12;6.70;;;4.90;;
41141;SDS011;63666;52.284;20.890;2022-10-13T04:31:44;6.50;;;4.90;;
41141;SDS011;63666;52.284;20.890;2022-10-13T04:34:18;7.20;;;4.60;;
41141;SDS011;63666;52.284;20.890;2022-10-13T04:36:51;7.00;;;4.90;;
41141;SDS011;63666;52.284;20.890;2022-10-13T04:39:24;6.70;;;5.00;;
41141;SDS011;63666;52.284;20.890;2022-10-13T04:41:56;7.30;;;4.90;;
41141;SDS011;63666;52.284;20.890;2022-10-13T04:44:31;6.30;;;4.90;;
41141;SDS011;63666;52.284;20.890;2022-10-13T04:47:03;7.20;;;4.80;;
41141;SDS011;63666;52.284;20.890;2022-10-13T04:49:36;7.00;;;5.20;;
41141;SDS011;63666;52.284;20.890;2022-10-13T04:52:08;7.40;;;5.00;;
41141;SDS011;63666;52.284;20.890;2022-10-13T04:54:41;7.00;;;5.00;;
41141;SDS011;63666;52.284;20.890;2022-10-13T04:57:13;7.70;;;5.40;;
41141;SDS011;63666;52.284;20.890;2022-10-13T04:59:46;6.90;;;5.30;;
41141;SDS011;63666;52.284;20.890;2022-10-13T05:02:18;6.90;;;5.10;;
41141;SDS011;63666;52.284;20.890;2022-10-13T05:07:22;6.90;;;5.00;;
41141;SDS011;63666;52.284;20.890;2022-10-13T05:09:55;7.30;;;5.40;;
41141;SDS011;63666;52.284;20.890;2022-10-13T05:12:30;7.80;;;5.20;;
41141;SDS011;63666;52.284;20.890;2022-10-13T05:15:02;6.70;;;5.10;;
41141;SDS011;63666;52.284;20.890;2022-10-13T05:17:35;7.40;;;5.00;;
41141;SDS011;63666;52.284;20.890;2022-10-13T05:20:09;7.10;;;5.50;;
41141;SDS011;63666;52.284;20.890;2022-10-13T05:22:43;7.00;;;5.10;;
41141;SDS011;63666;52.284;20.890;2022-10-13T05:25:15;7.70;;;5.40;;
41141;SDS011;63666;52.284;20.890;2022-10-13T05:27:47;7.10;;;5.10;;
41141;SDS011;63666;52.284;20.890;2022-10-13T05:30:20;7.50;;;5.10;;
41141;SDS011;63666;52.284;20.890;2022-10-13T05:32:52;7.10;;;5.30;;
41141;SDS011;63666;52.284;20.890;2022-10-13T05:35:25;7.30;;;5.80;;
41141;SDS011;63666;52.284;20.890;2022-10-13T05:37:57;7.70;;;5.00;;
41141;SDS011;63666;52.284;20.890;2022-10-13T05:40:30;6.90;;;5.20;;
41141;SDS011;63666;52.284;20.890;2022-10-13T05:43:02;7.30;;;5.80;;
41141;SDS011;63666;52.284;20.890;2022-10-13T05:45:34;6.90;;;5.20;;
41141;SDS011;63666;52.284;20.890;2022-10-13T05:48:07;7.20;;;5.00;;
41141;SDS011;63666;52.284;20.890;2022-10-13T05:50:39;7.20;;;5.60;;
41141;SDS011;63666;52.284;20.890;2022-10-13T05:53:11;6.20;;;5.00;;
41141;SDS011;63666;52.284;20.890;2022-10-13T05:55:44;7.00;;;5.20;;
41141;SDS011;63666;52.284;20.890;2022-10-13T06:00:48;7.50;;;5.40;;
41141;SDS011;63666;52.284;20.890;2022-10-13T06:03:23;8.40;;;5.90;;
41141;SDS011;63666;52.284;20.890;2022-10-13T06:06:00;6.90;;;5.60;;
41141;SDS011;63666;52.284;20.890;2022-10-13T06:08:35;7.70;;;5.50;;
41141;SDS011;63666;52.284;20.890;2022-10-13T06:11:08;7.90;;;5.10;;
41141;SDS011;63666;52.284;20.890;2022-10-13T06:13:41;7.00;;;5.30;;
41141;SDS011;63666;52.284;20.890;2022-10-13T06:16:13;6.80;;;5.40;;
41141;SDS011;63666;52.284;20.890;2022-10-13T06:18:45;6.60;;;5.40;;
41141;SDS011;63666;52.284;20.890;2022-10-13T06:21:17;6.50;;;4.90;;
41141;SDS011;63666;52.284;20.890;2022-10-13T06:23:50;7.60;;;5.00;;
41141;SDS011;63666;52.284;20.890;2022-10-13T06:26:22;7.40;;;5.10;;
41141;SDS011;63666;52.284;20.890;2022-10-13T06:28:54;7.00;;;5.10;;
41141;SDS011;63666;52.284;20.890;2022-10-13T06:31:28;7.10;;;5.50;;
41141;SDS011;63666;52.284;20.890;2022-10-13T06:34:05;7.30;;;5.60;;
41141;SDS011;63666;52.284;20.890;2022-10-13T06:36:37;6.20;;;4.90;;
41141;SDS011;63666;52.284;20.890;2022-10-13T06:39:10;9.40;;;5.60;;
41141;SDS011;63666;52.284;20.890;2022-10-13T06:44:14;9.20;;;5.40;;
41141;SDS011;63666;52.284;20.890;2022-10-13T06:46:46;8.00;;;5.60;;
41141;SDS011;63666;52.284;20.890;2022-10-13T06:49:18;8.50;;;6.20;;
41141;SDS011;63666;52.284;20.890;2022-10-13T06:51:51;8.60;;;5.70;;
41141;SDS011;63666;52.284;20.890;2022-10-13T06:54:23;9.90;;;6.00;;
41141;SDS011;63666;52.284;20.890;2022-10-13T06:56:55;9.50;;;5.40;;
41141;SDS011;63666;52.284;20.890;2022-10-13T06:59:27;10.40;;;6.00;;
41141;SDS011;63666;52.284;20.890;2022-10-13T07:02:00;8.10;;;5.50;;
41141;SDS011;63666;52.284;20.890;2022-10-13T07:04:32;8.80;;;5.50;;
41141;SDS011;63666;52.284;20.890;2022-10-13T07:07:04;9.40;;;6.60;;
41141;SDS011;63666;52.284;20.890;2022-10-13T07:09:38;9.20;;;6.50;;
41141;SDS011;63666;52.284;20.890;2022-10-13T07:12:13;9.60;;;6.30;;
41141;SDS011;63666;52.284;20.890;2022-10-13T07:14:46;8.10;;;6.20;;
41141;SDS011;63666;52.284;20.890;2022-10-13T07:17:19;9.70;;;6.80;;
41141;SDS011;63666;52.284;20.890;2022-10-13T07:19:51;9.20;;;6.20;;
41141;SDS011;63666;52.284;20.890;2022-10-13T07:22:23;8.80;;;6.50;;
41141;SDS011;63666;52.284;20.890;2022-10-13T07:24:55;9.30;;;6.30;;
41141;SDS011;63666;52.284;20.890;2022-10-13T07:27:29;10.00;;;6.70;;
41141;SDS011;63666;52.284;20.890;2022-10-13T07:30:01;9.70;;;6.70;;
41141;SDS011;63666;52.284;20.890;2022-10-13T07:32:37;9.60;;;7.10;;
41141;SDS011;63666;52.284;20.890;2022-10-13T07:35:11;11.10;;;7.00;;
41141;SDS011;63666;52.284;20.890;2022-10-13T07:37:43;11.10;;;6.80;;
41141;SDS011;63666;52.284;20.890;2022-10-13T07:40:16;10.80;;;6.50;;
41141;SDS011;63666;52.284;20.890;2022-10-13T07:45:20;10.40;;;6.70;;
41141;SDS011;63666;52.284;20.890;2022-10-13T07:47:52;10.50;;;6.10;;
41141;SDS011;63666;52.284;20.890;2022-10-13T07:50:25;9.90;;;6.40;;
41141;SDS011;63666;52.284;20.890;2022-10-13T07:52:57;9.70;;;6.50;;
41141;SDS011;63666;52.284;20.890;2022-10-13T07:55:30;9.80;;;6.40;;
41141;SDS011;63666;52.284;20.890;2022-10-13T07:58:05;8.50;;;5.80;;
41141;SDS011;63666;52.284;20.890;2022-10-13T08:00:37;9.60;;;6.00;;
41141;SDS011;63666;52.284;20.890;2022-10-13T08:03:10;9.60;;;6.20;;
41141;SDS011;63666;52.284;20.890;2022-10-13T08:05:42;8.50;;;6.00;;
41141;SDS011;63666;52.284;20.890;2022-10-13T08:08:14;8.80;;;5.90;;
41141;SDS011;63666;52.284;20.890;2022-10-13T08:10:46;9.70;;;6.50;;
41141;SDS011;63666;52.284;20.890;2022-10-13T08:13:18;8.90;;;6.10;;
41141;SDS011;63666;52.284;20.890;2022-10-13T08:15:50;9.40;;;5.90;;
41141;SDS011;63666;52.284;20.890;2022-10-13T08:18:22;8.70;;;6.20;;
41141;SDS011;63666;52.284;20.890;2022-10-13T08:20:54;7.80;;;5.70;;
41141;SDS011;63666;52.284;20.890;2022-10-13T08:23:28;8.80;;;6.30;;
41141;SDS011;63666;52.284;20.890;2022-10-13T08:26:01;8.10;;;5.80;;
41141;SDS011;63666;52.284;20.890;2022-10-13T08:28:33;7.90;;;5.40;;
41141;SDS011;63666;52.284;20.890;2022-10-13T08:31:06;11.90;;;6.00;;
41141;SDS011;63666;52.284;20.890;2022-10-13T08:33:38;8.30;;;5.80;;
41141;SDS011;63666;52.284;20.890;2022-10-13T08:36:10;7.90;;;5.90;;
41141;SDS011;63666;52.284;20.890;2022-10-13T08:38:42;9.50;;;6.40;;
41141;SDS011;63666;52.284;20.890;2022-10-13T08:41:18;8.30;;;5.90;;
41141;SDS011;63666;52.284;20.890;2022-10-13T08:43:54;7.20;;;5.20;;
41141;SDS011;63666;52.284;20.890;2022-10-13T08:46:43;8.40;;;6.00;;
41141;SDS011;63666;52.284;20.890;2022-10-13T08:49:18;8.40;;;5.50;;
41141;SDS011;63666;52.284;20.890;2022-10-13T08:51:51;7.90;;;5.60;;
41141;SDS011;63666;52.284;20.890;2022-10-13T08:54:24;7.10;;;5.40;;
41141;SDS011;63666;52.284;20.890;2022-10-13T08:56:57;8.80;;;5.40;;
41141;SDS011;63666;52.284;20.890;2022-10-13T08:59:29;6.90;;;5.20;;
41141;SDS011;63666;52.284;20.890;2022-10-13T09:02:04;8.10;;;5.30;;
41141;SDS011;63666;52.284;20.890;2022-10-13T09:04:44;8.70;;;5.30;;
41141;SDS011;63666;52.284;20.890;2022-10-13T09:07:20;8.00;;;5.20;;
41141;SDS011;63666;52.284;20.890;2022-10-13T09:09:54;7.20;;;5.10;;
41141;SDS011;63666;52.284;20.890;2022-10-13T09:12:27;8.20;;;5.80;;
41141;SDS011;63666;52.284;20.890;2022-10-13T09:15:06;7.80;;;5.00;;
41141;SDS011;63666;52.284;20.890;2022-10-13T09:17:42;8.10;;;5.30;;
41141;SDS011;63666;52.284;20.890;2022-10-13T09:20:21;7.80;;;5.00;;
41141;SDS011;63666;52.284;20.890;2022-10-13T09:23:04;7.20;;;4.80;;
41141;SDS011;63666;52.284;20.890;2022-10-13T09:25:42;8.00;;;4.90;;
41141;SDS011;63666;52.284;20.890;2022-10-13T09:28:21;9.20;;;5.20;;
41141;SDS011;63666;52.284;20.890;2022-10-13T09:31:11;6.80;;;4.90;;
41141;SDS011;63666;52.284;20.890;2022-10-13T09:33:57;7.50;;;5.10;;
41141;SDS011;63666;52.284;20.890;2022-10-13T09:36:32;8.10;;;5.20;;
41141;SDS011;63666;52.284;20.890;2022-10-13T09:39:12;6.80;;;5.00;;
41141;SDS011;63666;52.284;20.890;2022-10-13T09:41:45;8.00;;;5.20;;
41141;SDS011;63666;52.284;20.890;2022-10-13T09:44:26;7.70;;;5.10;;
41141;SDS011;63666;52.284;20.890;2022-10-13T09:47:04;7.20;;;4.70;;
41141;SDS011;63666;52.284;20.890;2022-10-13T09:49:44;7.80;;;4.90;;
41141;SDS011;63666;52.284;20.890;2022-10-13T09:52:20;7.50;;;5.50;;
41141;SDS011;63666;52.284;20.890;2022-10-13T09:54:55;9.90;;;5.00;;
41141;SDS011;63666;52.284;20.890;2022-10-13T09:57:36;8.30;;;5.50;;
41141;SDS011;63666;52.284;20.890;2022-10-13T10:02:56;8.60;;;5.30;;
41141;SDS011;63666;52.284;20.890;2022-10-13T10:05:43;7.30;;;4.90;;
41141;SDS011;63666;52.284;20.890;2022-10-13T10:08:23;8.30;;;4.60;;
41141;SDS011;63666;52.284;20.890;2022-10-13T10:11:00;7.80;;;4.70;;
41141;SDS011;63666;52.284;20.890;2022-10-13T10:13:34;8.30;;;5.10;;
41141;SDS011;63666;52.284;20.890;2022-10-13T10:16:12;7.30;;;4.50;;
41141;SDS011;63666;52.284;20.890;2022-10-13T10:18:51;8.20;;;5.10;;
41141;SDS011;63666;52.284;20.890;2022-10-13T10:21:32;6.60;;;4.60;;
41141;SDS011;63666;52.284;20.890;2022-10-13T10:24:25;9.20;;;4.90;;
41141;SDS011;63666;52.284;20.890;2022-10-13T10:27:07;7.30;;;4.50;;
41141;SDS011;63666;52.284;20.890;2022-10-13T10:29:47;7.00;;;4.60;;
41141;SDS011;63666;52.284;20.890;2022-10-13T10:32:29;7.30;;;4.30;;
41141;SDS011;63666;52.284;20.890;2022-10-13T10:35:13;7.70;;;4.20;;
41141;SDS011;63666;52.284;20.890;2022-10-13T10:38:11;7.30;;;4.00;;
41141;SDS011;63666;52.284;20.890;2022-10-13T10:40:58;7.90;;;4.20;;
41141;SDS011;63666;52.284;20.890;2022-10-13T10:43:43;6.70;;;3.80;;
41141;SDS011;63666;52.284;20.890;2022-10-13T10:46:22;7.90;;;4.30;;
41141;SDS011;63666;52.284;20.890;2022-10-13T10:48:59;8.70;;;4.70;;
41141;SDS011;63666;52.284;20.890;2022-10-13T10:51:36;7.10;;;4.00;;
41141;SDS011;63666;52.284;20.890;2022-10-13T10:54:20;7.00;;;4.30;;
41141;SDS011;63666;52.284;20.890;2022-10-13T10:57:07;6.80;;;3.80;;
41141;SDS011;63666;52.284;20.890;2022-10-13T10:59:50;6.90;;;4.30;;
41141;SDS011;63666;52.284;20.890;2022-10-13T11:02:43;7.00;;;4.00;;
41141;SDS011;63666;52.284;20.890;2022-10-13T11:05:20;6.80;;;3.80;;
41141;SDS011;63666;52.284;20.890;2022-10-13T11:07:59;7.60;;;4.20;;
41141;SDS011;63666;52.284;20.890;2022-10-13T11:10:31;7.50;;;3.90;;
41141;SDS011;63666;52.284;20.890;2022-10-13T11:13:20;7.10;;;3.60;;
41141;SDS011;63666;52.284;20.890;2022-10-13T11:15:56;5.50;;;3.50;;
41141;SDS011;63666;52.284;20.890;2022-10-13T11:18:57;6.20;;;3.70;;
41141;SDS011;63666;52.284;20.890;2022-10-13T11:25:00;7.00;;;3.60;;
41141;SDS011;63666;52.284;20.890;2022-10-13T11:27:44;6.40;;;3.50;;
41141;SDS011;63666;52.284;20.890;2022-10-13T11:30:46;5.40;;;3.30;;
41141;SDS011;63666;52.284;20.890;2022-10-13T11:33:54;5.80;;;3.40;;
41141;SDS011;63666;52.284;20.890;2022-10-13T11:39:51;5.50;;;3.10;;
41141;SDS011;63666;52.284;20.890;2022-10-13T11:42:52;5.30;;;3.30;;
41141;SDS011;63666;52.284;20.890;2022-10-13T11:45:48;4.90;;;3.10;;
41141;SDS011;63666;52.284;20.890;2022-10-13T11:48:42;6.50;;;3.30;;
41141;SDS011;63666;52.284;20.890;2022-10-13T11:51:31;5.90;;;3.00;;
41141;SDS011;63666;52.284;20.890;2022-10-13T11:54:22;5.20;;;3.10;;
41141;SDS011;63666;52.284;20.890;2022-10-13T11:56:57;6.20;;;3.40;;
41141;SDS011;63666;52.284;20.890;2022-10-13T11:59:35;5.90;;;3.10;;
41141;SDS011;63666;52.284;20.890;2022-10-13T12:02:13;5.80;;;3.60;;
41141;SDS011;63666;52.284;20.890;2022-10-13T12:05:00;5.90;;;3.30;;
41141;SDS011;63666;52.284;20.890;2022-10-13T12:07:36;6.20;;;3.20;;
41141;SDS011;63666;52.284;20.890;2022-10-13T12:10:18;4.30;;;2.80;;
41141;SDS011;63666;52.284;20.890;2022-10-13T12:12:53;5.30;;;3.20;;
41141;SDS011;63666;52.284;20.890;2022-10-13T12:15:33;5.20;;;3.00;;
41141;SDS011;63666;52.284;20.890;2022-10-13T12:18:22;4.60;;;2.90;;
41141;SDS011;63666;52.284;20.890;2022-10-13T12:20:57;5.10;;;2.60;;
41141;SDS011;63666;52.284;20.890;2022-10-13T12:23:31;5.80;;;2.90;;
41141;SDS011;63666;52.284;20.890;2022-10-13T12:26:04;5.40;;;2.70;;
41141;SDS011;63666;52.284;20.890;2022-10-13T12:28:48;5.40;;;3.10;;
41141;SDS011;63666;52.284;20.890;2022-10-13T12:31:24;5.90;;;2.80;;
41141;SDS011;63666;52.284;20.890;2022-10-13T12:33:58;4.90;;;2.60;;
41141;SDS011;63666;52.284;20.890;2022-10-13T12:36:32;5.00;;;3.10;;
41141;SDS011;63666;52.284;20.890;2022-10-13T12:39:09;4.60;;;2.60;;
41141;SDS011;63666;52.284;20.890;2022-10-13T12:41:44;4.60;;;2.70;;
41141;SDS011;63666;52.284;20.890;2022-10-13T12:44:22;4.90;;;2.70;;
41141;SDS011;63666;52.284;20.890;2022-10-13T12:47:00;5.60;;;2.90;;
41141;SDS011;63666;52.284;20.890;2022-10-13T12:49:34;5.50;;;2.70;;
41141;SDS011;63666;52.284;20.890;2022-10-13T12:52:12;4.90;;;2.50;;
41141;SDS011;63666;52.284;20.890;2022-10-13T12:54:50;4.50;;;2.50;;
41141;SDS011;63666;52.284;20.890;2022-10-13T12:57:35;6.00;;;2.60;;
41141;SDS011;63666;52.284;20.890;2022-10-13T13:00:21;4.60;;;2.50;;
41141;SDS011;63666;52.284;20.890;2022-10-13T13:02:57;5.40;;;2.40;;
41141;SDS011;63666;52.284;20.890;2022-10-13T13:05:35;4.20;;;2.30;;
41141;SDS011;63666;52.284;20.890;2022-10-13T13:08:24;5.30;;;2.80;;
41141;SDS011;63666;52.284;20.890;2022-10-13T13:11:01;4.90;;;2.70;;
41141;SDS011;63666;52.284;20.890;2022-10-13T13:13:35;4.80;;;2.20;;
41141;SDS011;63666;52.284;20.890;2022-10-13T13:16:16;4.50;;;2.30;;
41141;SDS011;63666;52.284;20.890;2022-10-13T13:18:50;5.10;;;2.50;;
41141;SDS011;63666;52.284;20.890;2022-10-13T13:21:22;5.50;;;2.80;;
41141;SDS011;63666;52.284;20.890;2022-10-13T13:23:54;4.90;;;2.60;;
41141;SDS011;63666;52.284;20.890;2022-10-13T13:26:26;5.20;;;2.80;;
41141;SDS011;63666;52.284;20.890;2022-10-13T13:28:59;5.60;;;2.60;;
41141;SDS011;63666;52.284;20.890;2022-10-13T13:31:31;4.90;;;2.80;;
41141;SDS011;63666;52.284;20.890;2022-10-13T13:34:03;5.30;;;2.60;;
41141;SDS011;63666;52.284;20.890;2022-10-13T13:36:35;4.90;;;2.50;;
41141;SDS011;63666;52.284;20.890;2022-10-13T13:39:14;5.70;;;2.60;;
41141;SDS011;63666;52.284;20.890;2022-10-13T13:41:46;4.70;;;2.50;;
41141;SDS011;63666;52.284;20.890;2022-10-13T13:44:18;4.30;;;2.30;;
41141;SDS011;63666;52.284;20.890;2022-10-13T13:46:51;5.10;;;2.60;;
41141;SDS011;63666;52.284;20.890;2022-10-13T13:49:23;4.60;;;2.50;;
41141;SDS011;63666;52.284;20.890;2022-10-13T13:51:55;5.80;;;2.80;;
41141;SDS011;63666;52.284;20.890;2022-10-13T13:54:28;5.70;;;2.70;;
41141;SDS011;63666;52.284;20.890;2022-10-13T13:57:03;5.50;;;2.80;;
41141;SDS011;63666;52.284;20.890;2022-10-13T13:59:35;4.90;;;2.40;;
41141;SDS011;63666;52.284;20.890;2022-10-13T14:02:12;5.20;;;2.40;;
41141;SDS011;63666;52.284;20.890;2022-10-13T14:04:46;5.30;;;2.50;;
41141;SDS011;63666;52.284;20.890;2022-10-13T14:07:18;4.80;;;2.70;;
41141;SDS011;63666;52.284;20.890;2022-10-13T14:09:50;5.10;;;2.80;;
41141;SDS011;63666;52.284;20.890;2022-10-13T14:12:23;4.90;;;2.40;;
41141;SDS011;63666;52.284;20.890;2022-10-13T14:14:55;4.80;;;2.70;;
41141;SDS011;63666;52.284;20.890;2022-10-13T14:17:28;5.50;;;2.70;;
41141;SDS011;63666;52.284;20.890;2022-10-13T14:20:02;4.90;;;2.40;;
41141;SDS011;63666;52.284;20.890;2022-10-13T14:22:37;6.20;;;2.80;;
41141;SDS011;63666;52.284;20.890;2022-10-13T14:25:12;5.80;;;2.90;;
41141;SDS011;63666;52.284;20.890;2022-10-13T14:27:45;5.80;;;2.90;;
41141;SDS011;63666;52.284;20.890;2022-10-13T14:30:17;5.10;;;3.00;;
41141;SDS011;63666;52.284;20.890;2022-10-13T14:32:50;5.40;;;2.90;;
41141;SDS011;63666;52.284;20.890;2022-10-13T14:35:22;6.40;;;3.00;;
41141;SDS011;63666;52.284;20.890;2022-10-13T14:37:55;5.50;;;2.90;;
41141;SDS011;63666;52.284;20.890;2022-10-13T14:40:27;5.50;;;2.90;;
41141;SDS011;63666;52.284;20.890;2022-10-13T14:42:59;5.60;;;3.00;;
41141;SDS011;63666;52.284;20.890;2022-10-13T14:45:31;6.40;;;3.00;;
41141;SDS011;63666;52.284;20.890;2022-10-13T14:48:12;5.20;;;2.90;;
41141;SDS011;63666;52.284;20.890;2022-10-13T14:50:44;4.80;;;2.40;;
41141;SDS011;63666;52.284;20.890;2022-10-13T14:53:17;5.60;;;2.80;;
41141;SDS011;63666;52.284;20.890;2022-10-13T14:55:49;5.60;;;2.80;;
41141;SDS011;63666;52.284;20.890;2022-10-13T14:58:21;5.30;;;2.80;;
41141;SDS011;63666;52.284;20.890;2022-10-13T15:00:53;5.40;;;2.80;;
41141;SDS011;63666;52.284;20.890;2022-10-13T15:03:25;5.60;;;2.40;;
41141;SDS011;63666;52.284;20.890;2022-10-13T15:05:58;4.50;;;2.70;;
41141;SDS011;63666;52.284;20.890;2022-10-13T15:08:34;5.40;;;3.00;;
41141;SDS011;63666;52.284;20.890;2022-10-13T15:11:07;5.40;;;3.10;;
41141;SDS011;63666;52.284;20.890;2022-10-13T15:13:39;5.40;;;2.90;;
41141;SDS011;63666;52.284;20.890;2022-10-13T15:16:16;5.60;;;2.70;;
41141;SDS011;63666;52.284;20.890;2022-10-13T15:18:49;5.60;;;2.90;;
41141;SDS011;63666;52.284;20.890;2022-10-13T15:21:23;6.30;;;2.70;;
41141;SDS011;63666;52.284;20.890;2022-10-13T15:23:55;4.60;;;2.60;;
41141;SDS011;63666;52.284;20.890;2022-10-13T15:26:30;5.30;;;2.80;;
41141;SDS011;63666;52.284;20.890;2022-10-13T15:29:03;5.00;;;2.50;;
41141;SDS011;63666;52.284;20.890;2022-10-13T15:31:35;6.30;;;2.80;;
41141;SDS011;63666;52.284;20.890;2022-10-13T15:34:08;7.30;;;2.90;;
41141;SDS011;63666;52.284;20.890;2022-10-13T15:36:43;5.60;;;2.90;;
41141;SDS011;63666;52.284;20.890;2022-10-13T15:39:16;5.10;;;2.60;;
41141;SDS011;63666;52.284;20.890;2022-10-13T15:41:48;5.40;;;2.80;;
41141;SDS011;63666;52.284;20.890;2022-10-13T15:44:21;5.90;;;3.10;;
41141;SDS011;63666;52.284;20.890;2022-10-13T15:46:55;4.70;;;2.40;;
41141;SDS011;63666;52.284;20.890;2022-10-13T15:49:28;5.60;;;2.90;;
41141;SDS011;63666;52.284;20.890;2022-10-13T15:52:00;5.20;;;2.50;;
41141;SDS011;63666;52.284;20.890;2022-10-13T15:54:32;5.60;;;2.70;;
41141;SDS011;63666;52.284;20.890;2022-10-13T15:57:05;8.10;;;2.80;;
41141;SDS011;63666;52.284;20.890;2022-10-13T15:59:37;5.20;;;2.60;;